sensor_id;sensor_type;location;lat;lon;timestamp;P1;durP1;ratioP1;P2;durP2;ratioP2
52274;SDS011;38228;50.940;4.024;2022-10-31T00:00:23;28.00;;;14.85;;
52274;SDS011;38228;50.940;4.024;2022-10-31T00:02:49;32.10;;;14.60;;
52274;SDS011;38228;50.940;4.024;2022-10-31T00:05:15;27.73;;;14.50;;
52274;SDS011;38228;50.940;4.024;2022-10-31T00:07:41;30.63;;;15.65;;
52274;SDS011;38228;50.940;4.024;2022-10-31T00:10:07;29.48;;;15.57;;
52274;SDS011;38228;50.940;4.024;2022-10-31T00:12:33;27.77;;;14.32;;
52274;SDS011;38228;50.940;4.024;2022-10-31T00:14:58;28.63;;;15.13;;
52274;SDS011;38228;50.940;4.024;2022-10-31T00:17:24;28.67;;;14.48;;
52274;SDS011;38228;50.940;4.024;2022-10-31T00:19:50;26.45;;;14.73;;
52274;SDS011;38228;50.940;4.024;2022-10-31T00:22:15;29.08;;;15.00;;
52274;SDS011;38228;50.940;4.024;2022-10-31T00:24:41;27.17;;;15.13;;
52274;SDS011;38228;50.940;4.024;2022-10-31T00:27:06;25.38;;;14.70;;
52274;SDS011;38228;50.940;4.024;2022-10-31T00:29:32;26.88;;;14.63;;
52274;SDS011;38228;50.940;4.024;2022-10-31T00:31:58;29.13;;;15.25;;
52274;SDS011;38228;50.940;4.024;2022-10-31T00:34:24;28.27;;;15.23;;
52274;SDS011;38228;50.940;4.024;2022-10-31T00:36:49;29.08;;;16.33;;
52274;SDS011;38228;50.940;4.024;2022-10-31T00:39:15;28.58;;;15.27;;
52274;SDS011;38228;50.940;4.024;2022-10-31T00:41:40;29.38;;;15.77;;
52274;SDS011;38228;50.940;4.024;2022-10-31T00:44:06;33.78;;;16.35;;
52274;SDS011;38228;50.940;4.024;2022-10-31T00:46:32;28.52;;;15.80;;
52274;SDS011;38228;50.940;4.024;2022-10-31T00:48:58;29.33;;;15.10;;
52274;SDS011;38228;50.940;4.024;2022-10-31T00:51:23;28.65;;;15.20;;
52274;SDS011;38228;50.940;4.024;2022-10-31T00:53:49;32.72;;;15.13;;
52274;SDS011;38228;50.940;4.024;2022-10-31T00:56:14;25.77;;;14.20;;
52274;SDS011;38228;50.940;4.024;2022-10-31T00:58:41;32.45;;;15.25;;
52274;SDS011;38228;50.940;4.024;2022-10-31T01:01:06;25.33;;;14.27;;
52274;SDS011;38228;50.940;4.024;2022-10-31T01:03:32;29.60;;;15.60;;
52274;SDS011;38228;50.940;4.024;2022-10-31T01:06:08;37.20;;;17.63;;
52274;SDS011;38228;50.940;4.024;2022-10-31T01:08:36;30.90;;;16.65;;
52274;SDS011;38228;50.940;4.024;2022-10-31T01:11:04;29.85;;;14.63;;
52274;SDS011;38228;50.940;4.024;2022-10-31T01:13:42;29.45;;;15.45;;
52274;SDS011;38228;50.940;4.024;2022-10-31T01:16:10;28.50;;;15.88;;
52274;SDS011;38228;50.940;4.024;2022-10-31T01:18:37;29.13;;;16.23;;
52274;SDS011;38228;50.940;4.024;2022-10-31T01:23:31;36.40;;;17.25;;
52274;SDS011;38228;50.940;4.024;2022-10-31T01:28:29;29.55;;;15.63;;
52274;SDS011;38228;50.940;4.024;2022-10-31T01:30:55;27.77;;;15.63;;
52274;SDS011;38228;50.940;4.024;2022-10-31T01:33:24;31.40;;;17.05;;
52274;SDS011;38228;50.940;4.024;2022-10-31T01:35:50;30.10;;;16.60;;
52274;SDS011;38228;50.940;4.024;2022-10-31T01:38:15;37.67;;;17.88;;
52274;SDS011;38228;50.940;4.024;2022-10-31T01:40:41;35.45;;;17.02;;
52274;SDS011;38228;50.940;4.024;2022-10-31T01:43:10;36.35;;;16.38;;
52274;SDS011;38228;50.940;4.024;2022-10-31T01:45:43;33.80;;;17.50;;
52274;SDS011;38228;50.940;4.024;2022-10-31T01:50:41;30.15;;;16.63;;
52274;SDS011;38228;50.940;4.024;2022-10-31T01:53:11;31.85;;;17.38;;
52274;SDS011;38228;50.940;4.024;2022-10-31T01:55:41;34.33;;;17.15;;
52274;SDS011;38228;50.940;4.024;2022-10-31T01:58:13;33.60;;;17.85;;
52274;SDS011;38228;50.940;4.024;2022-10-31T02:00:51;32.00;;;18.02;;
52274;SDS011;38228;50.940;4.024;2022-10-31T02:03:20;37.10;;;17.35;;
52274;SDS011;38228;50.940;4.024;2022-10-31T02:05:47;35.28;;;17.55;;
52274;SDS011;38228;50.940;4.024;2022-10-31T02:08:23;30.73;;;17.58;;
52274;SDS011;38228;50.940;4.024;2022-10-31T02:10:56;32.47;;;16.70;;
52274;SDS011;38228;50.940;4.024;2022-10-31T02:13:22;29.75;;;16.38;;
52274;SDS011;38228;50.940;4.024;2022-10-31T02:15:51;35.13;;;17.80;;
52274;SDS011;38228;50.940;4.024;2022-10-31T02:18:18;31.02;;;17.48;;
52274;SDS011;38228;50.940;4.024;2022-10-31T02:20:48;34.17;;;16.88;;
52274;SDS011;38228;50.940;4.024;2022-10-31T02:37:54;31.98;;;15.35;;
52274;SDS011;38228;50.940;4.024;2022-10-31T02:48:07;32.85;;;16.55;;
52274;SDS011;38228;50.940;4.024;2022-10-31T02:50:38;32.30;;;17.03;;
52274;SDS011;38228;50.940;4.024;2022-10-31T02:53:06;28.30;;;16.67;;
52274;SDS011;38228;50.940;4.024;2022-10-31T02:58:00;30.73;;;16.52;;
52274;SDS011;38228;50.940;4.024;2022-10-31T03:06:20;33.45;;;16.92;;
52274;SDS011;38228;50.940;4.024;2022-10-31T03:08:59;34.42;;;16.95;;
52274;SDS011;38228;50.940;4.024;2022-10-31T03:14:48;32.72;;;16.77;;
52274;SDS011;38228;50.940;4.024;2022-10-31T03:17:38;31.63;;;16.98;;
52274;SDS011;38228;50.940;4.024;2022-10-31T03:20:14;31.70;;;17.08;;
52274;SDS011;38228;50.940;4.024;2022-10-31T03:22:44;33.30;;;17.30;;
52274;SDS011;38228;50.940;4.024;2022-10-31T03:25:11;31.40;;;17.00;;
52274;SDS011;38228;50.940;4.024;2022-10-31T03:27:38;35.40;;;16.67;;
52274;SDS011;38228;50.940;4.024;2022-10-31T03:30:07;35.22;;;16.58;;
52274;SDS011;38228;50.940;4.024;2022-10-31T03:32:35;30.30;;;15.55;;
52274;SDS011;38228;50.940;4.024;2022-10-31T03:35:05;28.08;;;16.35;;
52274;SDS011;38228;50.940;4.024;2022-10-31T03:37:35;27.13;;;14.50;;
52274;SDS011;38228;50.940;4.024;2022-10-31T03:40:03;23.88;;;13.70;;
52274;SDS011;38228;50.940;4.024;2022-10-31T03:42:33;33.00;;;14.85;;
52274;SDS011;38228;50.940;4.024;2022-10-31T03:45:04;27.38;;;15.48;;
52274;SDS011;38228;50.940;4.024;2022-10-31T03:47:34;44.67;;;15.93;;
52274;SDS011;38228;50.940;4.024;2022-10-31T03:50:03;27.23;;;14.27;;
52274;SDS011;38228;50.940;4.024;2022-10-31T03:52:49;39.92;;;13.65;;
52274;SDS011;38228;50.940;4.024;2022-10-31T03:58:03;25.65;;;13.82;;
52274;SDS011;38228;50.940;4.024;2022-10-31T04:00:46;28.27;;;13.63;;
52274;SDS011;38228;50.940;4.024;2022-10-31T04:03:17;31.38;;;15.85;;
52274;SDS011;38228;50.940;4.024;2022-10-31T04:05:47;30.13;;;15.48;;
52274;SDS011;38228;50.940;4.024;2022-10-31T04:08:17;30.85;;;15.60;;
52274;SDS011;38228;50.940;4.024;2022-10-31T04:10:47;22.45;;;13.88;;
52274;SDS011;38228;50.940;4.024;2022-10-31T04:13:16;28.05;;;14.00;;
52274;SDS011;38228;50.940;4.024;2022-10-31T04:15:46;31.13;;;15.75;;
52274;SDS011;38228;50.940;4.024;2022-10-31T04:18:16;28.45;;;14.68;;
52274;SDS011;38228;50.940;4.024;2022-10-31T04:20:41;33.22;;;14.45;;
52274;SDS011;38228;50.940;4.024;2022-10-31T04:23:25;31.58;;;15.05;;
52274;SDS011;38228;50.940;4.024;2022-10-31T04:28:17;27.48;;;13.88;;
52274;SDS011;38228;50.940;4.024;2022-10-31T04:30:44;26.90;;;15.20;;
52274;SDS011;38228;50.940;4.024;2022-10-31T04:33:09;33.42;;;15.60;;
52274;SDS011;38228;50.940;4.024;2022-10-31T04:35:35;28.48;;;14.93;;
52274;SDS011;38228;50.940;4.024;2022-10-31T04:38:01;26.17;;;14.15;;
52274;SDS011;38228;50.940;4.024;2022-10-31T04:40:26;29.77;;;14.93;;
52274;SDS011;38228;50.940;4.024;2022-10-31T04:42:52;24.00;;;14.65;;
52274;SDS011;38228;50.940;4.024;2022-10-31T04:45:18;27.73;;;15.77;;
52274;SDS011;38228;50.940;4.024;2022-10-31T04:47:43;32.13;;;14.40;;
52274;SDS011;38228;50.940;4.024;2022-10-31T04:50:09;26.75;;;13.32;;
52274;SDS011;38228;50.940;4.024;2022-10-31T04:52:38;22.42;;;13.57;;
52274;SDS011;38228;50.940;4.024;2022-10-31T04:55:04;28.85;;;14.43;;
52274;SDS011;38228;50.940;4.024;2022-10-31T04:57:30;22.65;;;13.23;;
52274;SDS011;38228;50.940;4.024;2022-10-31T04:59:56;25.45;;;13.00;;
52274;SDS011;38228;50.940;4.024;2022-10-31T05:02:22;22.83;;;13.68;;
52274;SDS011;38228;50.940;4.024;2022-10-31T05:04:47;24.30;;;14.25;;
52274;SDS011;38228;50.940;4.024;2022-10-31T05:07:13;26.08;;;14.57;;
52274;SDS011;38228;50.940;4.024;2022-10-31T05:09:38;28.83;;;15.07;;
52274;SDS011;38228;50.940;4.024;2022-10-31T05:12:04;28.38;;;14.70;;
52274;SDS011;38228;50.940;4.024;2022-10-31T05:14:30;34.92;;;15.45;;
52274;SDS011;38228;50.940;4.024;2022-10-31T05:16:55;30.45;;;14.63;;
52274;SDS011;38228;50.940;4.024;2022-10-31T05:19:21;29.90;;;15.43;;
52274;SDS011;38228;50.940;4.024;2022-10-31T05:21:47;28.77;;;15.73;;
52274;SDS011;38228;50.940;4.024;2022-10-31T05:24:12;36.15;;;16.90;;
52274;SDS011;38228;50.940;4.024;2022-10-31T05:26:38;32.00;;;18.27;;
52274;SDS011;38228;50.940;4.024;2022-10-31T05:29:03;31.42;;;17.80;;
52274;SDS011;38228;50.940;4.024;2022-10-31T05:31:29;31.02;;;17.88;;
52274;SDS011;38228;50.940;4.024;2022-10-31T05:33:55;35.95;;;16.75;;
52274;SDS011;38228;50.940;4.024;2022-10-31T05:36:20;40.15;;;17.05;;
52274;SDS011;38228;50.940;4.024;2022-10-31T05:38:46;29.77;;;15.93;;
52274;SDS011;38228;50.940;4.024;2022-10-31T05:41:12;37.03;;;16.90;;
52274;SDS011;38228;50.940;4.024;2022-10-31T05:43:37;29.55;;;16.17;;
52274;SDS011;38228;50.940;4.024;2022-10-31T05:46:03;30.10;;;16.75;;
52274;SDS011;38228;50.940;4.024;2022-10-31T05:48:28;29.48;;;16.17;;
52274;SDS011;38228;50.940;4.024;2022-10-31T05:50:54;28.70;;;16.40;;
52274;SDS011;38228;50.940;4.024;2022-10-31T05:53:20;30.27;;;16.75;;
52274;SDS011;38228;50.940;4.024;2022-10-31T05:55:46;32.72;;;16.02;;
52274;SDS011;38228;50.940;4.024;2022-10-31T05:58:12;26.67;;;15.52;;
52274;SDS011;38228;50.940;4.024;2022-10-31T06:00:37;26.33;;;15.95;;
52274;SDS011;38228;50.940;4.024;2022-10-31T06:03:04;33.95;;;16.88;;
52274;SDS011;38228;50.940;4.024;2022-10-31T06:05:31;29.38;;;15.35;;
52274;SDS011;38228;50.940;4.024;2022-10-31T06:07:57;35.22;;;15.65;;
52274;SDS011;38228;50.940;4.024;2022-10-31T06:10:23;29.08;;;15.95;;
52274;SDS011;38228;50.940;4.024;2022-10-31T06:12:49;30.20;;;16.45;;
52274;SDS011;38228;50.940;4.024;2022-10-31T06:15:15;25.25;;;15.20;;
52274;SDS011;38228;50.940;4.024;2022-10-31T06:17:41;26.90;;;15.75;;
52274;SDS011;38228;50.940;4.024;2022-10-31T06:20:07;25.98;;;15.45;;
52274;SDS011;38228;50.940;4.024;2022-10-31T06:22:33;34.13;;;16.42;;
52274;SDS011;38228;50.940;4.024;2022-10-31T06:24:59;33.58;;;16.90;;
52274;SDS011;38228;50.940;4.024;2022-10-31T06:27:25;28.52;;;15.15;;
52274;SDS011;38228;50.940;4.024;2022-10-31T06:29:50;26.30;;;15.70;;
52274;SDS011;38228;50.940;4.024;2022-10-31T06:32:16;25.50;;;15.48;;
52274;SDS011;38228;50.940;4.024;2022-10-31T06:34:42;27.92;;;15.20;;
52274;SDS011;38228;50.940;4.024;2022-10-31T06:37:09;26.17;;;14.48;;
52274;SDS011;38228;50.940;4.024;2022-10-31T06:39:36;27.85;;;15.50;;
52274;SDS011;38228;50.940;4.024;2022-10-31T06:42:02;27.35;;;15.40;;
52274;SDS011;38228;50.940;4.024;2022-10-31T06:44:29;27.08;;;15.32;;
52274;SDS011;38228;50.940;4.024;2022-10-31T06:46:54;31.73;;;15.35;;
52274;SDS011;38228;50.940;4.024;2022-10-31T06:49:20;25.13;;;14.32;;
52274;SDS011;38228;50.940;4.024;2022-10-31T06:51:49;28.63;;;15.32;;
52274;SDS011;38228;50.940;4.024;2022-10-31T06:54:15;25.65;;;15.07;;
52274;SDS011;38228;50.940;4.024;2022-10-31T06:56:41;30.73;;;15.65;;
52274;SDS011;38228;50.940;4.024;2022-10-31T06:59:07;25.00;;;14.38;;
52274;SDS011;38228;50.940;4.024;2022-10-31T07:01:33;29.80;;;15.80;;
52274;SDS011;38228;50.940;4.024;2022-10-31T07:03:58;30.70;;;17.23;;
52274;SDS011;38228;50.940;4.024;2022-10-31T07:06:24;23.95;;;15.05;;
52274;SDS011;38228;50.940;4.024;2022-10-31T07:08:50;26.40;;;15.75;;
52274;SDS011;38228;50.940;4.024;2022-10-31T07:11:15;27.05;;;15.25;;
52274;SDS011;38228;50.940;4.024;2022-10-31T07:13:41;26.25;;;15.40;;
52274;SDS011;38228;50.940;4.024;2022-10-31T07:16:07;31.70;;;14.80;;
52274;SDS011;38228;50.940;4.024;2022-10-31T07:18:33;26.40;;;16.08;;
52274;SDS011;38228;50.940;4.024;2022-10-31T07:20:59;24.10;;;14.93;;
52274;SDS011;38228;50.940;4.024;2022-10-31T07:23:25;28.75;;;14.60;;
52274;SDS011;38228;50.940;4.024;2022-10-31T07:25:57;29.55;;;15.60;;
52274;SDS011;38228;50.940;4.024;2022-10-31T07:28:24;24.42;;;15.00;;
52274;SDS011;38228;50.940;4.024;2022-10-31T07:30:53;25.92;;;14.68;;
52274;SDS011;38228;50.940;4.024;2022-10-31T07:33:21;24.50;;;14.65;;
52274;SDS011;38228;50.940;4.024;2022-10-31T07:35:47;25.15;;;14.57;;
52274;SDS011;38228;50.940;4.024;2022-10-31T07:38:13;25.10;;;14.30;;
52274;SDS011;38228;50.940;4.024;2022-10-31T07:40:40;29.77;;;14.65;;
52274;SDS011;38228;50.940;4.024;2022-10-31T07:43:06;31.23;;;14.95;;
52274;SDS011;38228;50.940;4.024;2022-10-31T07:45:32;23.92;;;14.52;;
52274;SDS011;38228;50.940;4.024;2022-10-31T07:47:58;29.55;;;15.48;;
52274;SDS011;38228;50.940;4.024;2022-10-31T07:50:27;27.77;;;16.33;;
52274;SDS011;38228;50.940;4.024;2022-10-31T07:52:58;27.42;;;15.20;;
52274;SDS011;38228;50.940;4.024;2022-10-31T07:55:25;29.02;;;15.32;;
52274;SDS011;38228;50.940;4.024;2022-10-31T07:57:57;25.90;;;14.63;;
52274;SDS011;38228;50.940;4.024;2022-10-31T08:00:28;27.13;;;14.23;;
52274;SDS011;38228;50.940;4.024;2022-10-31T08:03:04;22.52;;;15.57;;
52274;SDS011;38228;50.940;4.024;2022-10-31T08:05:34;30.73;;;15.63;;
52274;SDS011;38228;50.940;4.024;2022-10-31T08:08:00;28.52;;;15.35;;
52274;SDS011;38228;50.940;4.024;2022-10-31T08:10:27;23.63;;;15.02;;
52274;SDS011;38228;50.940;4.024;2022-10-31T08:13:03;29.27;;;15.70;;
52274;SDS011;38228;50.940;4.024;2022-10-31T08:15:31;25.23;;;14.75;;
52274;SDS011;38228;50.940;4.024;2022-10-31T08:17:57;27.63;;;14.13;;
52274;SDS011;38228;50.940;4.024;2022-10-31T08:20:23;28.40;;;14.68;;
52274;SDS011;38228;50.940;4.024;2022-10-31T08:22:52;23.85;;;13.85;;
52274;SDS011;38228;50.940;4.024;2022-10-31T08:25:19;24.23;;;14.20;;
52274;SDS011;38228;50.940;4.024;2022-10-31T08:27:48;26.65;;;14.20;;
52274;SDS011;38228;50.940;4.024;2022-10-31T08:30:18;28.55;;;14.43;;
52274;SDS011;38228;50.940;4.024;2022-10-31T08:32:56;25.63;;;14.88;;
52274;SDS011;38228;50.940;4.024;2022-10-31T08:35:23;27.13;;;15.05;;
52274;SDS011;38228;50.940;4.024;2022-10-31T08:37:55;27.42;;;14.68;;
52274;SDS011;38228;50.940;4.024;2022-10-31T08:40:22;28.00;;;14.07;;
52274;SDS011;38228;50.940;4.024;2022-10-31T08:42:55;25.75;;;13.85;;
52274;SDS011;38228;50.940;4.024;2022-10-31T08:45:24;28.80;;;14.68;;
52274;SDS011;38228;50.940;4.024;2022-10-31T08:47:50;25.13;;;14.32;;
52274;SDS011;38228;50.940;4.024;2022-10-31T08:50:16;30.00;;;16.60;;
52274;SDS011;38228;50.940;4.024;2022-10-31T08:52:42;36.28;;;19.88;;
52274;SDS011;38228;50.940;4.024;2022-10-31T08:55:08;34.33;;;16.55;;
52274;SDS011;38228;50.940;4.024;2022-10-31T08:57:34;30.40;;;18.98;;
52274;SDS011;38228;50.940;4.024;2022-10-31T08:59:59;31.35;;;19.25;;
52274;SDS011;38228;50.940;4.024;2022-10-31T09:02:25;39.13;;;20.00;;
52274;SDS011;38228;50.940;4.024;2022-10-31T09:04:50;34.03;;;21.10;;
52274;SDS011;38228;50.940;4.024;2022-10-31T09:07:16;41.38;;;21.27;;
52274;SDS011;38228;50.940;4.024;2022-10-31T09:09:42;35.92;;;19.55;;
52274;SDS011;38228;50.940;4.024;2022-10-31T09:12:07;34.17;;;19.27;;
52274;SDS011;38228;50.940;4.024;2022-10-31T09:14:33;40.20;;;20.23;;
52274;SDS011;38228;50.940;4.024;2022-10-31T09:16:59;38.28;;;19.88;;
52274;SDS011;38228;50.940;4.024;2022-10-31T09:19:24;36.10;;;20.95;;
52274;SDS011;38228;50.940;4.024;2022-10-31T09:21:53;36.95;;;19.75;;
52274;SDS011;38228;50.940;4.024;2022-10-31T09:24:19;36.53;;;19.10;;
52274;SDS011;38228;50.940;4.024;2022-10-31T09:26:45;33.13;;;19.08;;
52274;SDS011;38228;50.940;4.024;2022-10-31T09:29:11;38.28;;;19.48;;
52274;SDS011;38228;50.940;4.024;2022-10-31T09:31:36;31.98;;;17.73;;
52274;SDS011;38228;50.940;4.024;2022-10-31T09:34:02;37.47;;;17.98;;
52274;SDS011;38228;50.940;4.024;2022-10-31T09:36:28;26.20;;;15.18;;
52274;SDS011;38228;50.940;4.024;2022-10-31T09:38:53;30.67;;;15.90;;
52274;SDS011;38228;50.940;4.024;2022-10-31T09:41:22;27.42;;;15.00;;
52274;SDS011;38228;50.940;4.024;2022-10-31T09:47:03;28.00;;;15.00;;
52274;SDS011;38228;50.940;4.024;2022-10-31T09:54:43;26.95;;;14.65;;
52274;SDS011;38228;50.940;4.024;2022-10-31T09:57:14;26.45;;;14.88;;
52274;SDS011;38228;50.940;4.024;2022-10-31T09:59:50;28.98;;;15.55;;
52274;SDS011;38228;50.940;4.024;2022-10-31T10:04:57;21.45;;;14.25;;
52274;SDS011;38228;50.940;4.024;2022-10-31T10:07:43;22.40;;;14.18;;
52274;SDS011;38228;50.940;4.024;2022-10-31T10:10:23;26.65;;;14.82;;
52274;SDS011;38228;50.940;4.024;2022-10-31T10:12:58;23.42;;;13.93;;
52274;SDS011;38228;50.940;4.024;2022-10-31T10:21:01;31.33;;;15.27;;
52274;SDS011;38228;50.940;4.024;2022-10-31T10:28:38;25.80;;;16.73;;
52274;SDS011;38228;50.940;4.024;2022-10-31T10:39:31;28.23;;;15.90;;
52274;SDS011;38228;50.940;4.024;2022-10-31T10:42:12;29.15;;;17.40;;
52274;SDS011;38228;50.940;4.024;2022-10-31T10:44:58;30.65;;;17.80;;
52274;SDS011;38228;50.940;4.024;2022-10-31T10:47:44;26.60;;;17.85;;
52274;SDS011;38228;50.940;4.024;2022-10-31T10:50:18;27.15;;;16.08;;
52274;SDS011;38228;50.940;4.024;2022-10-31T10:58:08;31.80;;;16.90;;
52274;SDS011;38228;50.940;4.024;2022-10-31T11:03:08;33.53;;;18.75;;
52274;SDS011;38228;50.940;4.024;2022-10-31T11:05:51;30.92;;;18.25;;
52274;SDS011;38228;50.940;4.024;2022-10-31T11:08:28;28.35;;;16.77;;
52274;SDS011;38228;50.940;4.024;2022-10-31T11:13:49;31.35;;;17.70;;
52274;SDS011;38228;50.940;4.024;2022-10-31T11:18:52;30.02;;;18.45;;
52274;SDS011;38228;50.940;4.024;2022-10-31T11:21:24;29.92;;;19.02;;
52274;SDS011;38228;50.940;4.024;2022-10-31T11:24:03;28.60;;;18.42;;
52274;SDS011;38228;50.940;4.024;2022-10-31T11:26:39;28.73;;;18.17;;
52274;SDS011;38228;50.940;4.024;2022-10-31T11:29:13;25.60;;;17.40;;
52274;SDS011;38228;50.940;4.024;2022-10-31T11:31:48;27.55;;;18.50;;
52274;SDS011;38228;50.940;4.024;2022-10-31T11:37:08;31.92;;;17.95;;
52274;SDS011;38228;50.940;4.024;2022-10-31T11:39:45;31.63;;;17.40;;
52274;SDS011;38228;50.940;4.024;2022-10-31T11:42:19;30.65;;;17.48;;
52274;SDS011;38228;50.940;4.024;2022-10-31T11:44:47;24.98;;;17.00;;
52274;SDS011;38228;50.940;4.024;2022-10-31T11:47:14;27.65;;;18.23;;
52274;SDS011;38228;50.940;4.024;2022-10-31T11:49:42;28.27;;;17.77;;
52274;SDS011;38228;50.940;4.024;2022-10-31T11:54:48;28.73;;;16.60;;
52274;SDS011;38228;50.940;4.024;2022-10-31T11:57:22;23.85;;;16.70;;
52274;SDS011;38228;50.940;4.024;2022-10-31T12:00:01;31.70;;;17.83;;
52274;SDS011;38228;50.940;4.024;2022-10-31T12:02:29;28.73;;;17.40;;
52274;SDS011;38228;50.940;4.024;2022-10-31T12:05:08;35.97;;;16.30;;
52274;SDS011;38228;50.940;4.024;2022-10-31T12:07:43;26.15;;;16.15;;
52274;SDS011;38228;50.940;4.024;2022-10-31T12:10:10;27.17;;;16.27;;
52274;SDS011;38228;50.940;4.024;2022-10-31T12:15:38;24.90;;;15.55;;
52274;SDS011;38228;50.940;4.024;2022-10-31T12:24:21;31.33;;;16.67;;
52274;SDS011;38228;50.940;4.024;2022-10-31T12:27:47;24.85;;;15.30;;
52274;SDS011;38228;50.940;4.024;2022-10-31T12:30:27;26.63;;;15.15;;
52274;SDS011;38228;50.940;4.024;2022-10-31T12:35:51;25.55;;;15.25;;
52274;SDS011;38228;50.940;4.024;2022-10-31T12:43:48;26.17;;;14.80;;
52274;SDS011;38228;50.940;4.024;2022-10-31T12:46:25;28.00;;;14.95;;
52274;SDS011;38228;50.940;4.024;2022-10-31T12:52:17;21.70;;;14.43;;
52274;SDS011;38228;50.940;4.024;2022-10-31T12:54:52;22.52;;;13.50;;
52274;SDS011;38228;50.940;4.024;2022-10-31T12:57:31;24.17;;;13.55;;
52274;SDS011;38228;50.940;4.024;2022-10-31T13:00:12;24.33;;;14.68;;
52274;SDS011;38228;50.940;4.024;2022-10-31T13:03:02;25.05;;;13.80;;
52274;SDS011;38228;50.940;4.024;2022-10-31T13:05:30;21.13;;;14.02;;
52274;SDS011;38228;50.940;4.024;2022-10-31T13:11:09;23.50;;;13.88;;
52274;SDS011;38228;50.940;4.024;2022-10-31T13:16:40;21.42;;;12.70;;
52274;SDS011;38228;50.940;4.024;2022-10-31T13:19:28;26.88;;;13.70;;
52274;SDS011;38228;50.940;4.024;2022-10-31T13:22:34;24.23;;;12.63;;
52274;SDS011;38228;50.940;4.024;2022-10-31T13:27:36;17.67;;;11.02;;
52274;SDS011;38228;50.940;4.024;2022-10-31T13:30:15;24.35;;;11.60;;
52274;SDS011;38228;50.940;4.024;2022-10-31T13:41:03;20.20;;;10.70;;
52274;SDS011;38228;50.940;4.024;2022-10-31T13:46:36;23.42;;;11.55;;
52274;SDS011;38228;50.940;4.024;2022-10-31T13:49:04;20.85;;;11.25;;
52274;SDS011;38228;50.940;4.024;2022-10-31T13:57:06;24.25;;;9.73;;
52274;SDS011;38228;50.940;4.024;2022-10-31T13:59:54;20.92;;;7.72;;
52274;SDS011;38228;50.940;4.024;2022-10-31T14:02:31;20.38;;;7.57;;
52274;SDS011;38228;50.940;4.024;2022-10-31T14:05:14;16.90;;;7.13;;
52274;SDS011;38228;50.940;4.024;2022-10-31T14:07:47;20.65;;;6.90;;
52274;SDS011;38228;50.940;4.024;2022-10-31T14:15:54;19.55;;;7.50;;
52274;SDS011;38228;50.940;4.024;2022-10-31T14:18:23;18.65;;;7.40;;
52274;SDS011;38228;50.940;4.024;2022-10-31T14:20:53;18.20;;;7.07;;
52274;SDS011;38228;50.940;4.024;2022-10-31T14:25:53;17.30;;;7.30;;
52274;SDS011;38228;50.940;4.024;2022-10-31T14:28:31;19.48;;;8.07;;
52274;SDS011;38228;50.940;4.024;2022-10-31T14:30:59;21.98;;;9.10;;
52274;SDS011;38228;50.940;4.024;2022-10-31T14:33:29;22.77;;;8.55;;
52274;SDS011;38228;50.940;4.024;2022-10-31T14:41:45;17.42;;;6.57;;
52274;SDS011;38228;50.940;4.024;2022-10-31T14:50:04;20.20;;;6.57;;
52274;SDS011;38228;50.940;4.024;2022-10-31T14:52:38;18.35;;;7.65;;
52274;SDS011;38228;50.940;4.024;2022-10-31T14:55:06;18.42;;;7.78;;
52274;SDS011;38228;50.940;4.024;2022-10-31T14:57:36;19.27;;;7.22;;
52274;SDS011;38228;50.940;4.024;2022-10-31T15:00:08;18.52;;;7.50;;
52274;SDS011;38228;50.940;4.024;2022-10-31T15:05:26;17.60;;;7.13;;
52274;SDS011;38228;50.940;4.024;2022-10-31T15:07:56;16.20;;;7.70;;
52274;SDS011;38228;50.940;4.024;2022-10-31T15:10:26;15.75;;;7.18;;
52274;SDS011;38228;50.940;4.024;2022-10-31T15:12:54;18.17;;;7.68;;
52274;SDS011;38228;50.940;4.024;2022-10-31T15:15:21;17.15;;;7.50;;
52274;SDS011;38228;50.940;4.024;2022-10-31T15:17:52;18.83;;;7.82;;
52274;SDS011;38228;50.940;4.024;2022-10-31T15:20:20;22.45;;;8.95;;
52274;SDS011;38228;50.940;4.024;2022-10-31T15:22:51;32.17;;;9.93;;
52274;SDS011;38228;50.940;4.024;2022-10-31T15:25:22;29.55;;;11.32;;
52274;SDS011;38228;50.940;4.024;2022-10-31T15:27:50;28.15;;;11.25;;
52274;SDS011;38228;50.940;4.024;2022-10-31T15:30:17;29.50;;;10.50;;
52274;SDS011;38228;50.940;4.024;2022-10-31T15:32:45;35.90;;;11.88;;
52274;SDS011;38228;50.940;4.024;2022-10-31T15:35:18;26.60;;;11.35;;
52274;SDS011;38228;50.940;4.024;2022-10-31T15:37:55;25.35;;;10.35;;
52274;SDS011;38228;50.940;4.024;2022-10-31T15:40:23;23.45;;;9.50;;
52274;SDS011;38228;50.940;4.024;2022-10-31T15:42:54;17.42;;;8.73;;
52274;SDS011;38228;50.940;4.024;2022-10-31T15:45:23;19.30;;;8.63;;
52274;SDS011;38228;50.940;4.024;2022-10-31T15:47:55;23.58;;;9.40;;
52274;SDS011;38228;50.940;4.024;2022-10-31T15:50:34;17.75;;;7.97;;
52274;SDS011;38228;50.940;4.024;2022-10-31T15:53:03;20.48;;;8.43;;
52274;SDS011;38228;50.940;4.024;2022-10-31T15:55:33;24.40;;;8.73;;
52274;SDS011;38228;50.940;4.024;2022-10-31T15:58:10;24.45;;;8.55;;
52274;SDS011;38228;50.940;4.024;2022-10-31T16:00:38;24.67;;;9.20;;
52274;SDS011;38228;50.940;4.024;2022-10-31T16:05:45;24.92;;;8.80;;
52274;SDS011;38228;50.940;4.024;2022-10-31T16:10:50;25.92;;;9.65;;
52274;SDS011;38228;50.940;4.024;2022-10-31T16:13:16;18.58;;;9.40;;
52274;SDS011;38228;50.940;4.024;2022-10-31T16:15:52;25.33;;;10.50;;
52274;SDS011;38228;50.940;4.024;2022-10-31T16:18:24;23.20;;;10.70;;
52274;SDS011;38228;50.940;4.024;2022-10-31T16:20:52;23.17;;;9.15;;
52274;SDS011;38228;50.940;4.024;2022-10-31T16:23:20;18.77;;;8.38;;
52274;SDS011;38228;50.940;4.024;2022-10-31T16:25:49;17.83;;;7.65;;
52274;SDS011;38228;50.940;4.024;2022-10-31T16:28:17;14.75;;;7.35;;
52274;SDS011;38228;50.940;4.024;2022-10-31T16:30:47;18.15;;;7.70;;
52274;SDS011;38228;50.940;4.024;2022-10-31T16:35:59;21.13;;;7.38;;
52274;SDS011;38228;50.940;4.024;2022-10-31T16:38:28;22.20;;;8.68;;
52274;SDS011;38228;50.940;4.024;2022-10-31T16:40:53;20.25;;;7.95;;
52274;SDS011;38228;50.940;4.024;2022-10-31T16:43:19;16.48;;;7.45;;
52274;SDS011;38228;50.940;4.024;2022-10-31T16:45:48;14.27;;;7.07;;
52274;SDS011;38228;50.940;4.024;2022-10-31T16:48:18;17.63;;;7.35;;
52274;SDS011;38228;50.940;4.024;2022-10-31T16:50:46;18.83;;;7.55;;
52274;SDS011;38228;50.940;4.024;2022-10-31T16:53:13;19.17;;;7.40;;
52274;SDS011;38228;50.940;4.024;2022-10-31T16:55:49;21.27;;;8.05;;
52274;SDS011;38228;50.940;4.024;2022-10-31T16:58:20;20.58;;;7.13;;
52274;SDS011;38228;50.940;4.024;2022-10-31T17:00:49;17.13;;;7.57;;
52274;SDS011;38228;50.940;4.024;2022-10-31T17:03:15;19.02;;;7.70;;
52274;SDS011;38228;50.940;4.024;2022-10-31T17:05:41;14.57;;;7.15;;
52274;SDS011;38228;50.940;4.024;2022-10-31T17:08:07;20.95;;;7.70;;
52274;SDS011;38228;50.940;4.024;2022-10-31T17:10:33;18.73;;;7.75;;
52274;SDS011;38228;50.940;4.024;2022-10-31T17:12:59;18.25;;;7.55;;
52274;SDS011;38228;50.940;4.024;2022-10-31T17:15:27;18.58;;;7.88;;
52274;SDS011;38228;50.940;4.024;2022-10-31T17:17:55;18.13;;;7.55;;
52274;SDS011;38228;50.940;4.024;2022-10-31T17:22:50;21.75;;;8.02;;
52274;SDS011;38228;50.940;4.024;2022-10-31T17:25:18;17.92;;;8.18;;
52274;SDS011;38228;50.940;4.024;2022-10-31T17:27:47;19.27;;;7.68;;
52274;SDS011;38228;50.940;4.024;2022-10-31T17:30:13;16.67;;;7.68;;